createdAt,value
2023-02-22T00:01:35.964Z,72.33
2023-02-22T00:04:11.445Z,77.20
2023-02-22T00:06:40.823Z,68.20
2023-02-22T00:09:10.463Z,66.27
2023-02-22T00:11:39.921Z,68.80
2023-02-22T00:14:10.748Z,66.00
2023-02-22T00:16:40.501Z,65.60
2023-02-22T00:19:11.667Z,57.33
2023-02-22T00:21:40.796Z,64.90
2023-02-22T00:24:24.144Z,70.87
2023-02-22T00:26:58.336Z,68.40
2023-02-22T00:29:29.856Z,69.77
2023-02-22T00:31:59.737Z,60.33
2023-02-22T00:34:30.614Z,76.13
2023-02-22T00:37:04.052Z,62.93
2023-02-22T00:39:35.174Z,65.03
2023-02-22T00:42:06.605Z,72.53
2023-02-22T00:44:36.590Z,67.30
2023-02-22T00:47:07.357Z,64.43
2023-02-22T00:49:39.005Z,70.63
2023-02-22T00:52:09.814Z,74.90
2023-02-22T00:54:40.857Z,78.53
2023-02-22T00:57:11.302Z,75.60
2023-02-22T00:59:41.254Z,70.03
2023-02-22T01:02:12.651Z,67.67
2023-02-22T01:04:43.726Z,74.00
2023-02-22T01:07:15.349Z,78.77
2023-02-22T01:09:45.633Z,69.87
2023-02-22T01:12:16.939Z,77.03
2023-02-22T01:14:46.449Z,80.10
2023-02-22T01:17:16.288Z,75.40
2023-02-22T01:19:45.129Z,71.93
2023-02-22T01:22:14.589Z,85.60
2023-02-22T01:24:44.835Z,72.77
2023-02-22T01:27:16.633Z,73.10
2023-02-22T01:29:49.496Z,78.37
2023-02-22T01:32:19.266Z,77.73
2023-02-22T01:34:49.300Z,68.93
2023-02-22T01:37:19.562Z,82.30
2023-02-22T01:39:49.787Z,83.60
2023-02-22T01:42:18.919Z,91.50
2023-02-22T01:45:27.759Z,80.93
2023-02-22T01:48:14.557Z,96.80
2023-02-22T01:51:20.548Z,98.03
2023-02-22T01:54:28.763Z,106.23
2023-02-22T01:57:27.940Z,105.00
2023-02-22T02:00:13.333Z,111.23
2023-02-22T02:03:15.793Z,139.43
2023-02-22T02:05:47.564Z,115.33
2023-02-22T02:09:21.535Z,121.23
2023-02-22T02:11:51.166Z,140.77
2023-02-22T02:14:22.528Z,122.87
2023-02-22T02:16:56.249Z,142.77
2023-02-22T02:20:08.373Z,282.03
2023-02-22T02:23:36.573Z,187.50
2023-02-22T02:26:38.249Z,115.40
2023-02-22T02:30:01.537Z,105.13
2023-02-22T02:33:12.556Z,319.37
2023-02-22T02:36:16.283Z,100.93
2023-02-22T02:39:19.532Z,271.17
2023-02-22T02:41:52.499Z,151.27
2023-02-22T02:44:46.503Z,375.50
2023-02-22T02:47:29.039Z,108.30
2023-02-22T02:50:33.899Z,200.87
2023-02-22T02:53:09.528Z,348.10
2023-02-22T02:55:38.589Z,209.43
2023-02-22T02:58:09.738Z,108.97
2023-02-22T03:00:42.707Z,115.37
2023-02-22T03:03:53.837Z,188.43
2023-02-22T03:07:16.833Z,283.53
2023-02-22T03:10:28.958Z,177.50
2023-02-22T03:13:33.593Z,88.57
2023-02-22T03:16:52.318Z,317.87
2023-02-22T03:19:43.601Z,104.27
2023-02-22T03:22:59.225Z,302.50
2023-02-22T03:25:46.584Z,424.80
2023-02-22T03:28:22.446Z,173.67
2023-02-22T03:31:06.391Z,174.03
2023-02-22T03:34:09.091Z,84.40
2023-02-22T03:36:56.067Z,189.40
2023-02-22T03:39:31.387Z,250.93
2023-02-22T03:42:15.150Z,224.17
2023-02-22T03:44:49.537Z,137.47
2023-02-22T03:47:33.524Z,100.07
2023-02-22T03:50:20.820Z,257.23
2023-02-22T03:52:49.210Z,239.57
2023-02-22T03:55:25.228Z,327.73
2023-02-22T03:58:03.389Z,452.10
2023-02-22T04:00:35.536Z,158.60
2023-02-22T04:03:04.598Z,299.43
2023-02-22T04:05:32.723Z,276.83
2023-02-22T04:08:00.551Z,294.97
2023-02-22T04:10:28.827Z,137.33
2023-02-22T04:12:56.597Z,202.47
2023-02-22T04:15:25.657Z,101.47
2023-02-22T04:17:59.516Z,110.77
2023-02-22T04:20:27.578Z,255.00
2023-02-22T04:23:08.362Z,101.37
2023-02-22T04:25:39.319Z,182.00
2023-02-22T04:28:18.293Z,463.23
2023-02-22T04:31:05.928Z,188.67
2023-02-22T04:33:33.881Z,110.23
2023-02-22T04:36:01.926Z,523.03
2023-02-22T04:38:32.954Z,635.67
2023-02-22T04:41:02.030Z,84.07
2023-02-22T04:43:29.833Z,205.67
2023-02-22T04:46:06.169Z,186.53
2023-02-22T04:48:33.993Z,107.83
2023-02-22T04:51:01.989Z,104.57
2023-02-22T04:53:32.325Z,178.03
2023-02-22T04:56:00.425Z,289.97
2023-02-22T04:58:28.488Z,334.80
2023-02-22T05:00:56.196Z,111.00
2023-02-22T05:03:23.988Z,169.30
2023-02-22T05:05:53.802Z,98.47
2023-02-22T05:08:21.692Z,185.53
2023-02-22T05:10:49.687Z,100.80
2023-02-22T05:13:17.433Z,190.77
2023-02-22T05:15:45.265Z,87.13
2023-02-22T05:18:13.113Z,126.90
2023-02-22T05:20:41.141Z,144.80
2023-02-22T05:23:09.762Z,95.17
2023-02-22T05:25:37.495Z,176.93
2023-02-22T05:28:14.362Z,76.77
2023-02-22T05:30:42.861Z,133.97
2023-02-22T05:33:11.442Z,88.70
2023-02-22T05:35:39.356Z,93.77
2023-02-22T05:38:08.454Z,75.47
2023-02-22T05:40:36.164Z,78.90
2023-02-22T05:43:04.219Z,142.20
2023-02-22T05:45:32.046Z,79.57
2023-02-22T05:48:00.780Z,65.97
2023-02-22T05:50:28.903Z,111.80
2023-02-22T05:52:56.960Z,128.37
2023-02-22T05:55:25.477Z,180.57
2023-02-22T05:57:54.396Z,92.73
2023-02-22T06:00:32.688Z,64.53
2023-02-22T06:03:10.949Z,42.17
2023-02-22T06:05:41.661Z,83.70
2023-02-22T06:08:10.744Z,110.53
2023-02-22T06:10:38.502Z,64.73
2023-02-22T06:13:07.599Z,144.70
2023-02-22T06:15:35.366Z,113.93
2023-02-22T06:18:03.681Z,87.17
2023-02-22T06:20:33.468Z,70.50
2023-02-22T06:23:01.214Z,90.17
2023-02-22T06:25:32.029Z,52.37
2023-02-22T06:28:01.841Z,65.03
2023-02-22T06:30:31.753Z,76.03
2023-02-22T06:33:00.413Z,94.67
2023-02-22T06:35:28.316Z,53.37
2023-02-22T06:37:56.322Z,66.40
2023-02-22T06:40:29.476Z,107.77
2023-02-22T06:43:00.027Z,73.40
2023-02-22T06:45:29.443Z,78.27
2023-02-22T06:47:57.152Z,64.17
2023-02-22T06:50:31.427Z,58.47
2023-02-22T06:52:59.734Z,63.00
2023-02-22T06:55:35.079Z,55.87
2023-02-22T06:58:05.280Z,83.27
2023-02-22T07:00:33.822Z,59.60
2023-02-22T07:03:05.058Z,50.43
2023-02-22T07:05:32.869Z,51.60
2023-02-22T07:08:07.982Z,43.57
2023-02-22T07:10:38.686Z,53.97
2023-02-22T07:13:09.229Z,41.83
2023-02-22T07:15:37.236Z,37.67
2023-02-22T07:18:05.796Z,43.03
2023-02-22T07:20:34.799Z,67.57
2023-02-22T07:23:20.746Z,68.10
2023-02-22T07:25:49.062Z,45.97
2023-02-22T07:28:17.433Z,61.17
2023-02-22T07:30:45.412Z,59.83
2023-02-22T07:33:14.100Z,80.17
2023-02-22T07:35:49.979Z,79.87
2023-02-22T07:38:21.213Z,133.10
2023-02-22T07:40:49.176Z,91.20
2023-02-22T07:43:31.747Z,101.20
2023-02-22T07:46:03.025Z,218.27
2023-02-22T07:48:32.761Z,154.17
2023-02-22T07:51:00.888Z,94.30
2023-02-22T07:53:33.723Z,88.63
2023-02-22T07:56:05.804Z,61.23
2023-02-22T07:58:33.945Z,68.47
2023-02-22T08:01:02.375Z,56.77
2023-02-22T08:03:38.038Z,63.17
2023-02-22T08:06:08.689Z,46.20
2023-02-22T08:08:36.694Z,52.07
2023-02-22T08:11:05.192Z,69.83
2023-02-22T08:13:33.098Z,65.13
2023-02-22T08:16:00.837Z,82.47
2023-02-22T08:18:28.595Z,47.43
2023-02-22T08:20:56.686Z,44.33
2023-02-22T08:23:27.391Z,35.83
2023-02-22T08:25:56.624Z,41.70
2023-02-22T08:28:25.663Z,38.57
2023-02-22T08:30:54.202Z,32.03
2023-02-22T08:33:22.722Z,38.30
2023-02-22T08:35:51.963Z,47.00
2023-02-22T08:38:30.433Z,36.90
2023-02-22T08:40:58.250Z,51.13
2023-02-22T08:43:26.715Z,47.70
2023-02-22T08:45:57.428Z,46.47
2023-02-22T08:48:26.853Z,57.43
2023-02-22T08:50:55.074Z,45.40
2023-02-22T08:53:23.012Z,48.37
2023-02-22T08:55:50.730Z,47.30
2023-02-22T08:58:18.811Z,43.17
2023-02-22T09:00:47.304Z,50.73
2023-02-22T09:03:16.452Z,56.70
2023-02-22T09:05:45.463Z,44.03
2023-02-22T09:08:13.831Z,49.80
2023-02-22T09:10:42.149Z,48.43
2023-02-22T09:13:10.378Z,43.53
2023-02-22T09:15:40.205Z,46.33
2023-02-22T09:18:14.833Z,46.43
2023-02-22T09:20:42.843Z,41.30
2023-02-22T09:23:11.095Z,38.03
2023-02-22T09:25:41.198Z,39.53
2023-02-22T09:28:09.422Z,34.20
2023-02-22T09:30:38.300Z,35.60
2023-02-22T09:33:20.339Z,39.53
2023-02-22T09:35:50.392Z,35.80
2023-02-22T09:38:26.068Z,29.27
2023-02-22T09:41:19.936Z,32.23
2023-02-22T09:44:48.941Z,34.00
2023-02-22T09:47:40.333Z,32.43
2023-02-22T09:50:25.271Z,33.00
2023-02-22T09:53:29.978Z,32.60
2023-02-22T09:56:13.220Z,33.90
2023-02-22T09:58:49.761Z,34.13
2023-02-22T10:01:45.088Z,32.00
2023-02-22T10:05:00.747Z,31.43
2023-02-22T10:07:51.976Z,30.03
2023-02-22T10:10:25.256Z,33.70
2023-02-22T10:13:29.823Z,31.40
2023-02-22T10:16:17.617Z,30.97
2023-02-22T10:19:23.216Z,31.50
2023-02-22T10:22:49.233Z,26.53
2023-02-22T10:25:27.789Z,28.60
2023-02-22T10:28:26.856Z,30.50
2023-02-22T10:31:09.653Z,27.87
2023-02-22T10:33:53.659Z,26.93
2023-02-22T10:36:26.364Z,29.37
2023-02-22T10:39:39.019Z,28.80
2023-02-22T10:42:09.982Z,33.20
2023-02-22T10:44:41.089Z,26.97
2023-02-22T10:47:20.452Z,27.63
2023-02-22T10:50:00.892Z,31.73
2023-02-22T10:52:34.955Z,26.50
2023-02-22T10:55:15.407Z,24.97
2023-02-22T10:57:52.011Z,23.50
2023-02-22T11:00:39.807Z,24.07
2023-02-22T11:03:24.026Z,25.00
2023-02-22T11:05:52.704Z,22.87
2023-02-22T11:08:33.027Z,26.10
2023-02-22T11:11:29.417Z,23.90
2023-02-22T11:14:00.781Z,17.60
2023-02-22T11:16:51.448Z,20.57
2023-02-22T11:19:30.316Z,22.20
2023-02-22T11:22:42.209Z,21.00
2023-02-22T11:25:22.869Z,20.50
2023-02-22T11:27:52.443Z,26.83
2023-02-22T11:30:29.257Z,21.97
2023-02-22T11:33:24.244Z,18.90
2023-02-22T11:36:06.252Z,19.43
2023-02-22T11:38:39.495Z,17.53
2023-02-22T11:41:29.163Z,18.07
2023-02-22T11:44:26.595Z,18.73
2023-02-22T11:47:07.107Z,23.20
2023-02-22T11:49:44.199Z,17.83
2023-02-22T11:52:39.216Z,23.40
2023-02-22T11:55:43.587Z,17.40
2023-02-22T11:59:02.904Z,18.43
2023-02-22T12:02:26.482Z,16.37
2023-02-22T12:05:59.783Z,18.67
2023-02-22T12:09:14.151Z,17.90
2023-02-22T12:12:31.717Z,20.40
2023-02-22T12:15:24.417Z,18.20
2023-02-22T12:19:15.181Z,17.43
2023-02-22T12:22:02.388Z,16.13
2023-02-22T12:25:12.311Z,20.10
2023-02-22T12:28:32.538Z,19.53
2023-02-22T12:31:34.049Z,16.60
2023-02-22T12:34:41.471Z,13.70
2023-02-22T12:38:31.463Z,17.50
2023-02-22T12:41:38.491Z,15.37
2023-02-22T12:44:40.033Z,15.50
2023-02-22T12:47:23.153Z,32.33
2023-02-22T12:50:20.047Z,15.70
2023-02-22T12:53:02.065Z,16.70
2023-02-22T12:56:16.062Z,19.00
2023-02-22T12:59:39.374Z,15.67
2023-02-22T13:03:05.002Z,11.27
2023-02-22T13:05:41.575Z,10.60
2023-02-22T13:08:44.417Z,13.83
2023-02-22T13:12:34.562Z,13.10
2023-02-22T13:15:41.297Z,11.43
2023-02-22T13:18:57.647Z,10.47
2023-02-22T13:22:13.253Z,8.20
2023-02-22T13:25:14.415Z,9.47
2023-02-22T13:28:42.476Z,9.00
2023-02-22T13:31:40.944Z,9.03
2023-02-22T13:34:36.732Z,9.83
2023-02-22T13:37:59.048Z,10.07
2023-02-22T13:41:22.715Z,9.40
2023-02-22T13:44:33.377Z,8.50
2023-02-22T13:47:51.642Z,10.40
2023-02-22T13:51:12.673Z,10.60
2023-02-22T13:54:29.796Z,9.37
2023-02-22T13:57:03.184Z,14.13
2023-02-22T13:59:37.620Z,7.97
2023-02-22T14:02:08.182Z,7.43
2023-02-22T14:04:43.054Z,8.17
2023-02-22T14:07:22.832Z,7.43
2023-02-22T14:10:01.918Z,9.07
2023-02-22T14:12:35.249Z,14.30
2023-02-22T14:15:31.020Z,8.27
2023-02-22T14:18:16.388Z,9.43
2023-02-22T14:20:45.135Z,11.17
2023-02-22T14:23:37.711Z,10.60
2023-02-22T14:26:31.351Z,8.50
2023-02-22T14:29:10.097Z,11.87
2023-02-22T14:31:44.050Z,10.07
2023-02-22T14:34:49.649Z,11.43
2023-02-22T14:37:45.065Z,8.40
2023-02-22T14:40:34.601Z,8.10
2023-02-22T14:43:26.010Z,9.03
2023-02-22T14:46:02.282Z,11.63
2023-02-22T14:48:43.201Z,11.50
2023-02-22T14:51:39.900Z,10.37
2023-02-22T14:54:37.198Z,8.37
2023-02-22T14:57:21.901Z,10.43
2023-02-22T15:00:22.779Z,12.77
2023-02-22T15:02:53.738Z,13.30
2023-02-22T15:05:21.593Z,10.77
2023-02-22T15:08:08.953Z,10.70
2023-02-22T15:10:51.733Z,14.70
2023-02-22T15:13:26.886Z,14.10
2023-02-22T15:16:08.667Z,18.30
2023-02-22T15:18:47.200Z,14.77
2023-02-22T15:21:24.976Z,17.40
2023-02-22T15:24:03.938Z,15.60
2023-02-22T15:27:00.381Z,14.67
2023-02-22T15:29:40.975Z,17.87
2023-02-22T15:32:49.963Z,16.20
2023-02-22T15:35:33.740Z,14.73
2023-02-22T15:38:20.456Z,14.93
2023-02-22T15:41:05.180Z,13.10
2023-02-22T15:43:32.940Z,15.60
2023-02-22T15:46:02.358Z,17.70
2023-02-22T15:48:31.908Z,16.40
2023-02-22T15:51:14.179Z,14.57
2023-02-22T15:53:51.180Z,17.27
2023-02-22T15:56:32.128Z,14.10
2023-02-22T15:59:18.423Z,15.47
2023-02-22T16:01:53.440Z,17.70
2023-02-22T16:04:31.115Z,13.70
2023-02-22T16:07:17.300Z,14.43
2023-02-22T16:09:52.294Z,14.17
2023-02-22T16:12:22.687Z,16.23
2023-02-22T16:14:54.951Z,13.70
2023-02-22T16:17:26.018Z,17.80
2023-02-22T16:19:54.797Z,13.13
2023-02-22T16:22:38.496Z,18.97
2023-02-22T16:25:18.919Z,20.03
2023-02-22T16:27:57.705Z,15.53
2023-02-22T16:30:40.450Z,19.27
2023-02-22T16:33:16.692Z,19.60
2023-02-22T16:35:52.440Z,16.10
2023-02-22T16:38:21.331Z,20.43
2023-02-22T16:40:58.595Z,19.10
2023-02-22T16:43:35.505Z,14.67
2023-02-22T16:46:07.204Z,18.70
2023-02-22T16:48:38.535Z,16.80
2023-02-22T16:51:29.140Z,17.10
2023-02-22T16:53:57.322Z,19.93
2023-02-22T16:56:31.283Z,19.77
2023-02-22T16:59:11.128Z,18.50
2023-02-22T17:01:39.043Z,19.17
2023-02-22T17:04:25.888Z,16.70
2023-02-22T17:06:53.990Z,16.20
2023-02-22T17:09:22.980Z,20.17
2023-02-22T17:11:53.964Z,18.20
2023-02-22T17:14:35.612Z,19.40
2023-02-22T17:17:04.225Z,25.23
2023-02-22T17:19:31.988Z,19.60
2023-02-22T17:21:59.704Z,18.03
2023-02-22T17:24:29.434Z,20.27
2023-02-22T17:26:59.417Z,16.30
2023-02-22T17:29:29.775Z,18.90
2023-02-22T17:31:57.996Z,18.10
2023-02-22T17:34:26.087Z,18.77
2023-02-22T17:36:54.445Z,18.37
2023-02-22T17:39:22.395Z,17.63
2023-02-22T17:41:56.978Z,18.63
2023-02-22T17:44:26.978Z,16.80
2023-02-22T17:46:55.154Z,18.53
2023-02-22T17:49:22.998Z,18.90
2023-02-22T17:51:53.236Z,24.17
2023-02-22T17:54:21.154Z,17.93
2023-02-22T17:56:49.258Z,23.37
2023-02-22T17:59:17.005Z,18.60
2023-02-22T18:01:45.398Z,20.90
2023-02-22T18:04:13.320Z,25.97
2023-02-22T18:06:41.205Z,20.20
2023-02-22T18:09:10.875Z,22.10
2023-02-22T18:11:40.859Z,20.47
2023-02-22T18:14:11.015Z,24.03
2023-02-22T18:16:41.677Z,20.30
2023-02-22T18:19:09.605Z,22.87
2023-02-22T18:21:38.763Z,21.57
2023-02-22T18:24:07.738Z,22.00
2023-02-22T18:26:39.169Z,23.90
2023-02-22T18:29:08.147Z,25.27
2023-02-22T18:31:36.037Z,22.50
2023-02-22T18:34:04.146Z,26.60
2023-02-22T18:36:32.568Z,25.20
2023-02-22T18:39:00.389Z,24.77
2023-02-22T18:41:28.871Z,22.67
2023-02-22T18:44:00.446Z,26.33
2023-02-22T18:46:30.380Z,26.77
2023-02-22T18:48:59.772Z,27.77
2023-02-22T18:51:30.705Z,28.50
2023-02-22T18:54:01.934Z,30.57
2023-02-22T18:56:41.668Z,34.83
2023-02-22T18:59:13.651Z,37.57
2023-02-22T19:01:49.028Z,32.90
2023-02-22T19:04:22.286Z,36.40
2023-02-22T19:06:50.290Z,40.10
2023-02-22T19:09:25.075Z,42.37
2023-02-22T19:11:54.811Z,37.87
2023-02-22T19:14:23.945Z,39.30
2023-02-22T19:16:53.398Z,37.53
2023-02-22T19:19:24.138Z,41.37
2023-02-22T19:21:57.639Z,41.70
2023-02-22T19:24:28.273Z,42.13
2023-02-22T19:27:00.013Z,41.93
2023-02-22T19:29:31.297Z,41.93
2023-02-22T19:31:59.824Z,38.83
2023-02-22T19:34:27.633Z,42.00
2023-02-22T19:36:56.179Z,43.30
2023-02-22T19:39:25.939Z,40.50
2023-02-22T19:41:53.778Z,46.53
2023-02-22T19:44:25.954Z,38.27
2023-02-22T19:46:55.796Z,39.43
2023-02-22T19:51:58.422Z,40.03
2023-02-22T19:54:26.181Z,39.10
2023-02-22T19:56:54.548Z,40.80
2023-02-22T19:59:23.155Z,40.50
2023-02-22T20:01:56.325Z,39.97
2023-02-22T20:04:25.758Z,40.87
2023-02-22T20:06:55.775Z,37.20
2023-02-22T20:09:40.442Z,35.80
2023-02-22T20:12:10.076Z,38.90
2023-02-22T20:14:38.928Z,43.27
2023-02-22T20:17:08.019Z,35.10
2023-02-22T20:19:37.745Z,36.90
2023-02-22T20:22:05.880Z,35.53
2023-02-22T20:24:34.154Z,39.13
2023-02-22T20:27:01.936Z,38.20
2023-02-22T20:29:30.085Z,37.70
2023-02-22T20:32:02.641Z,38.80
2023-02-22T20:34:32.562Z,36.87
2023-02-22T20:37:02.154Z,39.17
2023-02-22T20:39:30.789Z,39.70
2023-02-22T20:42:03.723Z,39.23
2023-02-22T20:44:31.817Z,39.40
2023-02-22T20:47:00.936Z,40.37
2023-02-22T20:49:28.800Z,40.30
2023-02-22T20:51:56.657Z,41.57
2023-02-22T20:54:24.902Z,44.40
2023-02-22T20:56:53.256Z,38.33
2023-02-22T20:59:22.161Z,43.37
2023-02-22T21:01:50.630Z,41.30
2023-02-22T21:04:19.344Z,38.53
2023-02-22T21:06:47.211Z,37.90
2023-02-22T21:09:21.758Z,39.87
2023-02-22T21:11:50.777Z,35.90
2023-02-22T21:14:20.054Z,40.33
2023-02-22T21:16:52.897Z,38.37
2023-02-22T21:19:27.680Z,39.40
2023-02-22T21:22:01.519Z,37.67
2023-02-22T21:24:30.419Z,40.80
2023-02-22T21:26:59.204Z,34.97
2023-02-22T21:29:29.786Z,34.47
2023-02-22T21:31:57.773Z,38.93
2023-02-22T21:34:26.773Z,35.70
2023-02-22T21:36:55.039Z,42.43
2023-02-22T21:39:28.744Z,43.30
2023-02-22T21:42:01.001Z,34.87
2023-02-22T21:44:29.900Z,44.63
2023-02-22T21:46:57.970Z,41.40
2023-02-22T21:49:25.861Z,37.87
2023-02-22T21:51:53.999Z,37.97
2023-02-22T21:54:23.004Z,39.30
2023-02-22T21:56:51.222Z,41.67
2023-02-22T21:59:25.409Z,45.03
2023-02-22T22:01:57.201Z,51.77
2023-02-22T22:04:32.918Z,47.53
2023-02-22T22:07:04.010Z,47.13
2023-02-22T22:09:38.110Z,56.50
2023-02-22T22:12:06.611Z,51.93
2023-02-22T22:14:37.708Z,51.50
2023-02-22T22:17:09.396Z,56.47
2023-02-22T22:19:39.538Z,56.73
2023-02-22T22:22:08.074Z,54.77
2023-02-22T22:24:36.771Z,61.53
2023-02-22T22:27:06.632Z,62.07
2023-02-22T22:29:34.777Z,69.50
2023-02-22T22:32:03.971Z,63.70
2023-02-22T22:34:34.699Z,65.27
2023-02-22T22:37:03.279Z,61.77
2023-02-22T22:39:31.624Z,54.20
2023-02-22T22:41:59.487Z,54.73
2023-02-22T22:44:32.966Z,64.50
2023-02-22T22:47:01.389Z,53.30
2023-02-22T22:49:31.479Z,71.97
2023-02-22T22:51:59.562Z,59.67
2023-02-22T22:54:27.497Z,64.70
2023-02-22T22:56:55.254Z,58.90
2023-02-22T22:59:23.150Z,60.17
2023-02-22T23:01:52.379Z,65.70
2023-02-22T23:04:21.516Z,61.33
2023-02-22T23:06:53.639Z,63.97
2023-02-22T23:09:31.722Z,72.37
2023-02-22T23:12:16.943Z,66.47
2023-02-22T23:14:46.788Z,72.80
2023-02-22T23:17:31.197Z,61.07
2023-02-22T23:19:59.356Z,63.33
2023-02-22T23:22:27.998Z,67.43
2023-02-22T23:24:55.600Z,64.43
2023-02-22T23:27:23.896Z,73.70
2023-02-22T23:29:52.643Z,68.40
2023-02-22T23:32:20.550Z,69.37
2023-02-22T23:34:49.787Z,74.97
2023-02-22T23:37:20.733Z,60.60
2023-02-22T23:39:51.209Z,63.10
2023-02-22T23:42:19.002Z,66.47
2023-02-22T23:44:48.412Z,65.20
2023-02-22T23:47:16.337Z,62.73
2023-02-22T23:49:49.455Z,73.83
2023-02-22T23:52:24.215Z,76.53
2023-02-22T23:54:54.076Z,78.13
2023-02-22T23:57:22.378Z,81.27
2023-02-22T23:59:51.541Z,73.40
